Time;durP1;ratioP1;P1;durP2;ratioP2;P2;SDS_P1;SDS_P2;PMS_P1;PMS_P2;Temp;Humidity;BMP_temperature;BMP_pressure;BME280_temperature;BME280_humidity;BME280_pressure;Samples;Min_cycle;Max_cycle;Signal;HPM_P1;HPM_P2
2023/09/22 06:47:03;;;;;;;;;1.25;1.25;;;;;21.83;55.63;99633.19;5113548;27;45244;-55
2023/09/22 06:49:28;;;;;;;;;2.00;1.00;;;;;22.27;54.18;99628.28;5075841;27;45488;-56
2023/09/22 06:51:54;;;;;;;;;1.00;1.00;;;;;22.49;53.28;99623.09;5085214;27;46494;-55
2023/09/22 06:54:20;;;;;;;;;1.25;1.00;;;;;22.79;52.76;99627.00;5085593;27;45533;-56
2023/09/22 06:56:46;;;;;;;;;2.75;1.00;;;;;23.05;51.83;99624.00;5092968;27;45416;-57
2023/09/22 06:59:13;;;;;;;;;2.75;2.25;;;;;23.18;51.70;99627.84;5095774;27;45248;-58
2023/09/22 07:01:40;;;;;;;;;0.75;0.75;;;;;23.17;51.46;99623.41;5095326;27;45469;-57
2023/09/22 07:04:09;;;;;;;;;1.25;1.00;;;;;23.31;51.51;99630.84;5075290;27;45688;-56
2023/09/22 07:06:39;;;;;;;;;1.25;1.25;;;;;23.41;51.13;99627.91;5092779;27;45351;-58
2023/09/22 07:09:09;;;;;;;;;0.00;0.00;;;;;23.44;51.00;99626.69;5095319;27;45378;-56
2023/09/22 07:11:39;;;;;;;;;1.75;1.75;;;;;23.49;50.78;99616.09;5095797;27;45348;-55
2023/09/22 07:14:05;;;;;;;;;1.00;1.00;;;;;23.58;51.18;99625.94;5647476;22;46097;-55
2023/09/22 07:16:32;;;;;;;;;1.25;1.00;;;;;23.61;50.70;99626.44;5049768;28;45415;-56
2023/09/22 07:18:58;;;;;;;;;1.75;1.00;;;;;23.63;50.38;99616.19;5053891;28;45527;-56
2023/09/22 07:21:23;;;;;;;;;0.00;0.00;;;;;23.69;50.39;99618.19;5048826;28;45406;-56
2023/09/22 07:26:23;;;;;;;;;1.00;1.00;;;;;23.51;50.80;99617.63;1401194;26;46289;-73
2023/09/22 07:28:49;;;;;;;;;2.00;2.00;;;;;23.66;50.27;99610.31;5029478;28;45483;-75
2023/09/22 07:31:20;;;;;;;;;0.50;0.50;;;;;23.85;50.45;99603.53;5029773;28;45521;-75
2023/09/22 07:33:46;;;;;;;;;1.00;1.00;;;;;23.84;50.08;99609.16;5031297;28;45359;-75
2023/09/22 07:36:49;;;;;;;;;1.00;1.00;;;;;23.91;49.98;99607.41;5017414;28;45946;-74
2023/09/22 07:39:14;;;;;;;;;2.00;1.00;;;;;23.85;49.77;99606.25;5025191;28;46282;-77
2023/09/22 07:41:40;;;;;;;;;2.00;0.75;;;;;23.79;49.79;99603.41;5030411;28;45681;-75
2023/09/22 07:44:05;;;;;;;;;0.00;0.00;;;;;23.66;50.09;99602.13;5030384;28;45399;-74
2023/09/22 07:46:30;;;;;;;;;1.00;1.00;;;;;23.69;50.37;99601.75;5026135;28;45618;-77
2023/09/22 07:48:56;;;;;;;;;1.25;1.25;;;;;23.74;50.46;99593.00;5016895;28;45387;-75
2023/09/22 07:51:22;;;;;;;;;2.75;1.50;;;;;23.85;50.12;99602.66;5016707;28;45249;-76
2023/09/22 07:53:47;;;;;;;;;3.00;1.25;;;;;23.80;50.39;99596.91;5016918;28;45545;-76
2023/09/22 07:56:14;;;;;;;;;1.00;1.00;;;;;23.95;50.61;99600.53;5016289;28;46278;-75
2023/09/22 07:58:42;;;;;;;;;1.00;1.00;;;;;23.98;49.74;99602.91;5016703;28;45452;-73
2023/09/22 08:01:16;;;;;;;;;0.00;0.00;;;;;23.98;49.92;99609.25;5016642;28;45447;-75
2023/09/22 08:04:08;;;;;;;;;0.75;0.50;;;;;23.72;50.52;99608.78;5009940;28;45766;-77
2023/09/22 08:06:34;;;;;;;;;1.00;1.00;;;;;23.72;50.63;99593.19;5010569;28;45812;-76
2023/09/22 08:09:00;;;;;;;;;1.00;1.00;;;;;23.83;50.69;99605.56;5015869;28;45403;-75
2023/09/22 08:11:25;;;;;;;;;2.50;0.25;;;;;23.83;50.82;99596.50;5015407;28;45419;-73
2023/09/22 08:13:51;;;;;;;;;1.00;1.00;;;;;23.96;50.68;99622.25;5015534;28;45365;-74
2023/09/22 08:16:17;;;;;;;;;1.50;1.00;;;;;23.85;50.28;99608.13;5015472;28;45440;-75
2023/09/22 08:18:43;;;;;;;;;0.00;0.00;;;;;23.64;51.41;99620.63;5015336;28;45560;-75
2023/09/22 08:21:09;;;;;;;;;2.75;0.00;;;;;23.47;51.89;99626.34;5017887;28;45351;-76
2023/09/22 08:23:34;;;;;;;;;1.50;1.00;;;;;23.57;51.84;99625.09;5017824;28;45403;-74
2023/09/22 08:26:05;;;;;;;;;1.00;1.00;;;;;23.62;51.52;99630.91;5017105;28;45919;-76
2023/09/22 08:28:31;;;;;;;;;0.75;0.75;;;;;23.74;50.77;99620.34;5016180;28;45371;-74
2023/09/22 08:30:56;;;;;;;;;0.00;0.00;;;;;23.37;50.69;99621.94;5016752;28;45352;-74
2023/09/22 08:33:22;;;;;;;;;0.00;0.00;;;;;23.47;50.03;99619.00;5010879;28;45654;-75
2023/09/22 08:35:48;;;;;;;;;0.00;0.00;;;;;23.22;50.16;99604.56;4997289;28;48225;-75
2023/09/22 08:38:14;;;;;;;;;0.00;0.00;;;;;23.08;50.64;99626.34;5015271;28;45471;-74
2023/09/22 08:40:40;;;;;;;;;0.00;0.00;;;;;23.25;50.32;99619.78;5015648;28;45281;-74
2023/09/22 08:43:05;;;;;;;;;1.00;0.00;;;;;23.24;50.01;99624.41;5016020;28;45324;-75
2023/09/22 08:45:31;;;;;;;;;0.00;0.00;;;;;23.10;51.02;99630.63;5015682;28;45376;-74
2023/09/22 08:47:57;;;;;;;;;0.00;0.00;;;;;23.15;51.27;99639.13;5015544;28;45528;-78
2023/09/22 08:50:23;;;;;;;;;1.00;0.00;;;;;22.59;52.61;99649.22;5014936;28;45181;-75
2023/09/22 08:52:51;;;;;;;;;0.00;0.00;;;;;22.56;52.83;99646.81;5009265;28;45527;-75
2023/09/22 08:55:17;;;;;;;;;0.00;0.00;;;;;22.64;51.70;99637.75;5015456;28;45558;-74
2023/09/22 08:57:45;;;;;;;;;0.25;0.25;;;;;22.27;53.24;99646.53;5014668;28;45581;-77
2023/09/22 09:00:19;;;;;;;;;0.00;0.00;;;;;22.68;51.32;99632.78;5013400;28;45304;-75
2023/09/22 09:02:46;;;;;;;;;0.00;0.00;;;;;22.87;51.11;99643.38;5014905;28;45371;-75
2023/09/22 09:05:21;;;;;;;;;0.00;0.00;;;;;23.00;50.81;99624.50;5014297;28;46163;-75
2023/09/22 09:07:47;;;;;;;;;0.00;0.00;;;;;22.79;50.79;99618.81;5015293;28;45292;-74
2023/09/22 09:10:25;;;;;;;;;0.00;0.00;;;;;23.09;50.11;99622.59;5015091;28;45382;-76
2023/09/22 09:12:51;;;;;;;;;0.00;0.00;;;;;23.35;49.77;99623.16;5012710;28;45328;-75
2023/09/22 09:15:17;;;;;;;;;0.00;0.00;;;;;23.56;49.29;99634.31;5015059;28;45948;-75
2023/09/22 09:17:42;;;;;;;;;0.00;0.00;;;;;23.33;49.78;99630.69;5012522;28;51714;-76
2023/09/22 09:20:08;;;;;;;;;0.00;0.00;;;;;23.26;49.84;99629.69;5015211;28;45336;-76
2023/09/22 09:22:38;;;;;;;;;0.00;0.00;;;;;23.48;50.42;99619.84;5015071;28;45362;-76
2023/09/22 09:25:09;;;;;;;;;0.00;0.00;;;;;23.60;49.62;99638.44;5015900;28;45418;-75
2023/09/22 09:27:34;;;;;;;;;0.00;0.00;;;;;23.95;49.18;99642.47;5007746;28;45586;-74
2023/09/22 09:30:08;;;;;;;;;1.00;1.00;;;;;24.05;49.11;99640.31;5014277;28;45486;-76
2023/09/22 09:32:33;;;;;;;;;0.00;0.00;;;;;24.38;48.73;99640.91;5015313;28;45620;-77
2023/09/22 09:34:59;;;;;;;;;0.00;0.00;;;;;24.57;47.82;99638.69;5014548;28;45414;-73
2023/09/22 09:37:26;;;;;;;;;0.00;0.00;;;;;24.23;46.54;99650.16;5015446;28;45394;-76
2023/09/22 09:39:58;;;;;;;;;0.00;0.00;;;;;24.11;46.74;99657.91;5019759;28;45505;-74
2023/09/22 09:42:25;;;;;;;;;0.00;0.00;;;;;24.29;46.66;99658.47;5004066;28;47357;-73
2023/09/22 09:44:59;;;;;;;;;0.00;0.00;;;;;24.49;47.26;99662.41;5014694;28;45391;-74
2023/09/22 09:47:27;;;;;;;;;0.00;0.00;;;;;24.33;44.75;99672.66;5013779;28;45352;-73
2023/09/22 09:49:58;;;;;;;;;0.00;0.00;;;;;24.39;45.33;99671.91;5013560;28;45459;-76
2023/09/22 09:52:37;;;;;;;;;0.00;0.00;;;;;24.48;45.37;99668.06;4995551;28;45356;-75
2023/09/22 09:55:14;;;;;;;;;0.00;0.00;;;;;24.36;45.23;99675.00;5014642;28;46251;-74
2023/09/22 09:57:42;;;;;;;;;0.00;0.00;;;;;24.13;44.34;99677.75;5013848;28;45564;-80
2023/09/22 10:00:14;;;;;;;;;0.00;0.00;;;;;24.34;45.80;99679.81;5013567;28;46062;-81
2023/09/22 10:02:44;;;;;;;;;0.00;0.00;;;;;23.96;45.56;99681.63;5016215;28;45522;-80
2023/09/22 10:05:14;;;;;;;;;0.25;0.00;;;;;24.37;45.63;99691.25;5015695;28;46555;-76
2023/09/22 10:07:42;;;;;;;;;0.00;0.00;;;;;24.50;45.64;99690.63;5014582;28;45491;-78
2023/09/22 10:10:09;;;;;;;;;0.00;0.00;;;;;24.55;45.65;99710.13;5014883;28;45356;-75
2023/09/22 10:12:35;;;;;;;;;0.00;0.00;;;;;24.30;46.11;99700.41;5014382;28;45405;-77
2023/09/22 10:15:06;;;;;;;;;0.25;0.25;;;;;24.49;45.22;99714.47;5014321;28;47029;-78
2023/09/22 10:17:32;;;;;;;;;0.00;0.00;;;;;24.88;45.49;99729.84;5014500;28;45426;-77
2023/09/22 10:20:06;;;;;;;;;0.00;0.00;;;;;24.88;44.42;99733.44;4995697;28;45419;-75
2023/09/22 10:22:32;;;;;;;;;0.00;0.00;;;;;24.67;44.34;99737.94;5012523;28;45454;-75
2023/09/22 10:25:13;;;;;;;;;0.25;0.00;;;;;24.89;44.27;99743.38;5013724;28;46103;-80
2023/09/22 10:28:07;;;;;;;;;0.00;0.00;;;;;24.84;43.90;99744.94;5019731;28;45728;-77
2023/09/22 10:30:44;;;;;;;;;0.00;0.00;;;;;25.10;43.15;99753.63;5013316;28;45210;-77
2023/09/22 10:33:15;;;;;;;;;0.00;0.00;;;;;25.04;42.76;99765.34;5014183;28;45338;-75
2023/09/22 10:35:41;;;;;;;;;2.00;0.50;;;;;24.91;43.01;99770.66;5011278;28;46224;-75
2023/09/22 10:38:10;;;;;;;;;0.00;0.00;;;;;25.04;43.03;99770.84;4997023;28;45379;-75
2023/09/22 10:40:35;;;;;;;;;1.00;1.00;;;;;25.08;42.28;99782.31;5014129;28;45550;-73
2023/09/22 10:43:03;;;;;;;;;0.00;0.00;;;;;24.85;42.99;99796.88;5013976;28;45327;-73
2023/09/22 10:45:29;;;;;;;;;0.00;0.00;;;;;24.57;44.37;99800.38;5013921;28;45370;-74
2023/09/22 10:47:57;;;;;;;;;0.00;0.00;;;;;24.00;43.62;99797.97;5014117;28;45382;-75
2023/09/22 10:50:30;;;;;;;;;2.00;0.75;;;;;23.68;44.93;99790.75;5013700;28;45459;-74
2023/09/22 10:52:57;;;;;;;;;1.00;1.00;;;;;24.00;45.40;99796.06;5013804;28;45394;-74
2023/09/22 10:55:36;;;;;;;;;0.75;0.75;;;;;23.93;44.71;99811.53;5013686;28;45339;-74
2023/09/22 10:58:14;;;;;;;;;1.00;1.00;;;;;24.12;45.03;99805.59;5014355;28;45440;-74
2023/09/22 11:00:53;;;;;;;;;1.00;1.00;;;;;24.18;45.40;99814.13;5013763;28;45339;-74
2023/09/22 11:03:19;;;;;;;;;1.00;1.00;;;;;24.42;44.95;99803.88;5013550;28;45844;-73
2023/09/22 11:05:46;;;;;;;;;0.50;0.50;;;;;24.60;45.24;99825.50;5013314;28;47054;-73
2023/09/22 11:08:18;;;;;;;;;2.75;1.75;;;;;24.23;44.28;99817.22;5013020;28;45358;-73
2023/09/22 11:10:54;;;;;;;;;3.00;1.50;;;;;24.29;44.85;99832.94;5013791;28;45324;-74
2023/09/22 11:13:21;;;;;;;;;1.00;1.00;;;;;24.50;43.52;99831.22;5013382;28;45324;-72
2023/09/22 11:15:50;;;;;;;;;1.00;1.00;;;;;24.75;44.22;99836.56;5013878;28;45421;-72
2023/09/22 11:18:22;;;;;;;;;1.00;1.00;;;;;25.13;43.61;99841.03;5013560;28;45414;-73
2023/09/22 11:20:48;;;;;;;;;1.50;0.75;;;;;25.08;41.42;99854.47;5018989;28;45407;-75
2023/09/22 11:23:15;;;;;;;;;1.00;1.00;;;;;24.62;41.75;99859.09;5014890;28;46177;-72
2023/09/22 11:25:40;;;;;;;;;0.00;0.00;;;;;24.47;41.99;99853.53;5017212;28;45394;-75
2023/09/22 11:28:06;;;;;;;;;1.50;1.00;;;;;24.11;41.47;99858.66;5016594;28;45296;-73
2023/09/22 11:30:33;;;;;;;;;0.00;0.00;;;;;23.50;42.84;99875.81;5017726;28;45324;-77
2023/09/22 11:32:59;;;;;;;;;0.00;0.00;;;;;23.63;43.34;99875.28;5016858;28;45458;-73
2023/09/22 11:35:39;;;;;;;;;0.00;0.00;;;;;24.24;43.11;99879.19;5016707;28;46018;-75
2023/09/22 11:38:31;;;;;;;;;0.00;0.00;;;;;24.75;42.45;99892.22;5019129;28;45500;-74
2023/09/22 11:41:10;;;;;;;;;0.00;0.00;;;;;25.30;40.62;99887.53;5016504;28;45457;-74
2023/09/22 11:43:41;;;;;;;;;2.00;0.50;;;;;25.80;39.57;99892.34;5013461;28;45538;-82
2023/09/22 11:46:10;;;;;;;;;1.00;1.00;;;;;26.05;38.52;99901.16;5012371;28;45318;-80
2023/09/22 11:48:57;;;;;;;;;1.50;0.50;;;;;26.30;39.00;99902.56;5020637;28;45522;-74
2023/09/22 11:51:54;;;;;;;;;1.00;0.00;;;;;26.05;38.58;99873.69;5019783;28;45396;-77
2023/09/22 11:54:21;;;;;;;;;0.00;0.00;;;;;26.68;38.51;99906.00;5020391;28;45364;-76
2023/09/22 11:56:48;;;;;;;;;0.00;0.00;;;;;27.02;37.86;99902.59;5016680;28;45425;-77
2023/09/22 11:59:19;;;;;;;;;0.00;0.00;;;;;27.09;35.41;99922.75;5026165;28;44706;-78
2023/09/22 12:01:45;;;;;;;;;0.00;0.00;;;;;27.43;35.04;99902.72;5033411;28;45229;-76
2023/09/22 12:04:11;;;;;;;;;0.00;0.00;;;;;26.95;35.05;99904.41;5022154;28;45305;-74
2023/09/22 12:06:40;;;;;;;;;0.00;0.00;;;;;26.69;36.03;99926.97;5011338;28;45400;-73
2023/09/22 12:09:10;;;;;;;;;0.00;0.00;;;;;26.30;37.16;99935.53;5008043;28;45459;-71
2023/09/22 12:11:35;;;;;;;;;1.75;0.00;;;;;25.84;38.26;99951.34;5013162;28;45301;-71
2023/09/22 12:14:03;;;;;;;;;27.25;25.75;;;;;25.62;39.42;99966.84;5015493;28;45414;-75
2023/09/22 12:16:28;;;;;;;;;82.33;64.00;;;;;24.89;40.48;99976.44;5015754;28;46047;-73
2023/09/22 12:18:54;;;;;;;;;70.50;54.25;;;;;24.97;40.22;99971.97;5015799;28;45400;-72
2023/09/22 12:21:19;;;;;;;;;47.00;34.00;;;;;25.27;39.47;99965.56;5015874;28;45407;-72
2023/09/22 12:23:45;;;;;;;;;17.00;14.00;;;;;26.16;38.37;99961.97;5015762;28;45332;-73
2023/09/22 12:26:10;;;;;;;;;6.25;5.00;;;;;26.06;37.55;99982.53;4997943;28;46134;-72
2023/09/22 12:28:36;;;;;;;;;2.50;2.00;;;;;26.34;37.27;99967.13;5015356;28;45388;-73
2023/09/22 12:31:02;;;;;;;;;1.00;1.00;;;;;27.19;36.75;99961.81;5016220;28;45363;-72
2023/09/22 12:33:28;;;;;;;;;2.00;0.25;;;;;29.04;34.81;99961.13;5015520;28;45344;-72
2023/09/22 12:35:54;;;;;;;;;0.00;0.00;;;;;29.92;32.76;99967.38;5015538;28;45414;-74
2023/09/22 12:38:20;;;;;;;;;0.25;0.25;;;;;30.29;31.79;99977.75;5016093;28;45375;-76
2023/09/22 12:40:46;;;;;;;;;1.50;0.00;;;;;29.91;31.74;99969.28;5014150;28;45397;-74
2023/09/22 12:43:11;;;;;;;;;0.00;0.00;;;;;29.28;32.46;99981.75;4998084;28;45526;-74
2023/09/22 12:45:37;;;;;;;;;0.00;0.00;;;;;29.79;31.83;99975.66;5015684;28;46064;-74
2023/09/22 12:48:03;;;;;;;;;3.25;0.00;;;;;30.93;29.25;99982.44;5015880;28;45316;-74
2023/09/22 12:50:28;;;;;;;;;1.00;0.00;;;;;32.02;28.90;99971.00;5015721;28;45521;-73
2023/09/22 12:52:54;;;;;;;;;0.00;0.00;;;;;32.09;28.66;99980.09;5015741;28;45426;-74
2023/09/22 12:55:19;;;;;;;;;0.00;0.00;;;;;31.43;28.95;99980.66;4997721;28;46060;-73
2023/09/22 12:57:45;;;;;;;;;0.00;0.00;;;;;30.25;29.57;99964.56;5015488;28;45380;-76
2023/09/22 13:00:11;;;;;;;;;0.00;0.00;;;;;29.15;30.06;99988.13;4997860;28;45359;-75
2023/09/22 13:02:39;;;;;;;;;0.00;0.00;;;;;28.80;31.19;99968.06;4997895;28;46995;-76
2023/09/22 13:05:06;;;;;;;;;0.00;0.00;;;;;29.06;31.00;99997.66;5014315;28;45240;-77
2023/09/22 13:07:32;;;;;;;;;0.00;0.00;;;;;29.82;30.24;99983.53;5015416;28;45300;-76
2023/09/22 13:09:57;;;;;;;;;0.00;0.00;;;;;30.81;28.29;99982.25;5014722;28;45574;-76
2023/09/22 13:12:24;;;;;;;;;0.50;0.00;;;;;31.52;28.32;99992.31;5014910;28;45635;-78
2023/09/22 13:14:54;;;;;;;;;0.00;0.00;;;;;31.95;26.77;100001.56;5015168;28;45997;-76
2023/09/22 13:17:19;;;;;;;;;0.00;0.00;;;;;32.33;27.41;100000.56;5015049;28;45506;-76
2023/09/22 13:19:45;;;;;;;;;0.00;0.00;;;;;32.17;27.19;100003.94;5015111;28;45423;-77
2023/09/22 13:22:11;;;;;;;;;0.00;0.00;;;;;31.80;27.02;100005.78;5015405;28;50724;-76
2023/09/22 13:24:37;;;;;;;;;0.00;0.00;;;;;30.94;28.78;100009.06;5014019;28;48395;-77
2023/09/22 13:27:04;;;;;;;;;0.00;0.00;;;;;30.89;28.83;100006.06;5013265;28;45665;-80
2023/09/22 13:29:30;;;;;;;;;0.00;0.00;;;;;31.42;27.26;100006.66;5015294;28;45379;-82
2023/09/22 13:31:55;;;;;;;;;0.00;0.00;;;;;31.78;27.49;100010.69;5015381;28;45681;-77
2023/09/22 13:34:21;;;;;;;;;0.00;0.00;;;;;33.04;26.67;100022.19;5014679;28;45406;-77
2023/09/22 13:36:46;;;;;;;;;0.25;0.00;;;;;33.73;25.49;100018.00;5014995;28;45390;-79
2023/09/22 13:39:12;;;;;;;;;0.00;0.00;;;;;34.39;24.35;100019.66;5012535;28;45375;-75
2023/09/22 13:41:38;;;;;;;;;0.00;0.00;;;;;34.74;23.08;100031.63;5014288;28;45580;-76
2023/09/22 13:44:06;;;;;;;;;0.00;0.00;;;;;34.36;23.62;100020.16;5014057;28;45440;-76
2023/09/22 13:46:31;;;;;;;;;0.00;0.00;;;;;34.30;23.09;100027.50;5014567;28;45462;-76
2023/09/22 13:48:56;;;;;;;;;0.00;0.00;;;;;34.86;23.86;100026.88;5014415;28;45374;-76
2023/09/22 13:51:22;;;;;;;;;0.00;0.00;;;;;35.46;23.16;100039.53;5014448;28;53953;-78
2023/09/22 13:53:47;;;;;;;;;0.00;0.00;;;;;34.76;23.05;100042.50;5014522;28;45467;-78
2023/09/22 13:56:15;;;;;;;;;0.00;0.00;;;;;34.16;24.20;100051.09;5014760;28;45439;-77
2023/09/22 13:58:41;;;;;;;;;0.00;0.00;;;;;34.82;23.18;100047.94;5014256;28;45393;-75
2023/09/22 14:01:11;;;;;;;;;0.00;0.00;;;;;35.34;22.68;100052.66;4996744;28;45436;-76
2023/09/22 14:03:37;;;;;;;;;0.00;0.00;;;;;35.46;22.58;100059.03;5013891;28;46197;-77
2023/09/22 14:06:02;;;;;;;;;0.00;0.00;;;;;35.57;22.41;100045.03;5014685;28;45756;-76
2023/09/22 14:08:28;;;;;;;;;0.00;0.00;;;;;33.97;23.90;100052.25;5014020;28;45348;-77
2023/09/22 14:10:55;;;;;;;;;0.00;0.00;;;;;33.16;25.06;100056.44;5014221;28;45351;-77
2023/09/22 14:13:20;;;;;;;;;0.00;0.00;;;;;33.26;25.42;100051.16;5014405;28;45377;-76
2023/09/22 14:15:46;;;;;;;;;0.00;0.00;;;;;32.67;26.21;100077.69;5014150;28;45438;-77
2023/09/22 14:18:12;;;;;;;;;0.00;0.00;;;;;33.02;26.30;100077.97;5014081;28;46345;-77
2023/09/22 14:20:37;;;;;;;;;0.00;0.00;;;;;32.68;26.39;100073.00;5014033;28;45604;-77
2023/09/22 14:23:03;;;;;;;;;0.00;0.00;;;;;32.59;26.47;100080.78;5013535;28;45492;-77
2023/09/22 14:25:28;;;;;;;;;0.00;0.00;;;;;32.44;26.61;100083.06;5014180;28;45317;-77
2023/09/22 14:27:54;;;;;;;;;0.00;0.00;;;;;33.21;26.39;100084.38;5013931;28;45350;-77
2023/09/22 14:30:19;;;;;;;;;0.00;0.00;;;;;33.42;25.84;100094.16;5014512;28;45352;-77
2023/09/22 14:32:46;;;;;;;;;0.00;0.00;;;;;33.97;24.83;100083.72;5013516;28;45941;-76
2023/09/22 14:35:11;;;;;;;;;0.75;0.00;;;;;34.10;23.99;100100.19;5013142;28;45364;-77
2023/09/22 14:37:37;;;;;;;;;0.00;0.00;;;;;34.23;24.26;100089.91;5013067;28;45328;-78
2023/09/22 14:40:05;;;;;;;;;0.00;0.00;;;;;34.39;23.55;100097.56;4995326;28;45679;-79
2023/09/22 14:42:32;;;;;;;;;0.00;0.00;;;;;33.91;23.83;100101.38;5013618;28;46104;-78
2023/09/22 14:44:57;;;;;;;;;0.50;0.00;;;;;33.98;23.24;100109.59;5014302;28;45253;-79
2023/09/22 14:47:22;;;;;;;;;0.00;0.00;;;;;33.70;23.58;100104.63;5013999;28;45555;-80
2023/09/22 14:49:48;;;;;;;;;0.00;0.00;;;;;34.04;23.97;100111.41;5014155;28;45362;-74
2023/09/22 14:52:13;;;;;;;;;0.00;0.00;;;;;34.07;23.79;100109.00;5013886;28;45450;-79
2023/09/22 14:54:39;;;;;;;;;0.00;0.00;;;;;34.39;23.14;100117.06;4995974;28;45804;-79
2023/09/22 14:57:05;;;;;;;;;0.00;0.00;;;;;34.20;23.97;100115.47;5015161;28;45496;-78
2023/09/22 14:59:30;;;;;;;;;1.50;0.00;;;;;34.31;23.45;100101.56;5017779;28;45233;-78
2023/09/22 15:01:55;;;;;;;;;0.00;0.00;;;;;34.27;23.85;100117.06;5017514;28;45769;-77
2023/09/22 15:04:21;;;;;;;;;0.00;0.00;;;;;34.12;23.49;100128.59;5016926;28;50107;-73
2023/09/22 15:06:46;;;;;;;;;0.00;0.00;;;;;33.84;24.06;100114.53;4999736;28;45403;-78
2023/09/22 15:09:12;;;;;;;;;0.00;0.00;;;;;32.95;24.83;100141.06;5016350;28;45443;-76
2023/09/22 15:11:38;;;;;;;;;0.00;0.00;;;;;32.26;25.45;100141.28;5017108;28;46041;-78
2023/09/22 15:14:03;;;;;;;;;0.00;0.00;;;;;32.35;25.85;100130.75;4999912;28;45526;-81
2023/09/22 15:16:32;;;;;;;;;1.50;0.00;;;;;31.94;25.40;100130.19;5018172;28;45297;-79
2023/09/22 15:18:57;;;;;;;;;0.00;0.00;;;;;32.25;25.10;100143.22;4999024;28;45291;-75
2023/09/22 15:21:22;;;;;;;;;0.00;0.00;;;;;32.66;24.94;100152.91;5016975;28;46265;-75
2023/09/22 15:23:48;;;;;;;;;0.00;0.00;;;;;32.45;25.37;100156.91;5018335;28;46293;-76
2023/09/22 15:26:13;;;;;;;;;0.00;0.00;;;;;32.52;25.08;100163.25;5017104;28;45309;-75
2023/09/22 15:28:39;;;;;;;;;0.00;0.00;;;;;32.49;24.61;100152.63;5016093;28;45430;-75
2023/09/22 15:31:04;;;;;;;;;0.00;0.00;;;;;32.20;25.19;100165.25;5013650;28;46242;-72
2023/09/22 15:33:30;;;;;;;;;0.50;0.00;;;;;31.79;25.35;100174.03;5014555;28;45396;-71
2023/09/22 15:35:56;;;;;;;;;0.00;0.00;;;;;31.91;24.94;100163.06;5016722;28;45387;-73
2023/09/22 15:38:21;;;;;;;;;0.00;0.00;;;;;31.47;25.41;100178.63;5016961;28;45345;-73
2023/09/22 15:41:00;;;;;;;;;1.00;0.00;;;;;31.90;25.14;100169.69;5016766;28;45414;-73
2023/09/22 15:43:27;;;;;;;;;0.00;0.00;;;;;32.31;24.71;100175.63;5015987;28;45517;-72
2023/09/22 15:45:53;;;;;;;;;0.00;0.00;;;;;32.73;23.76;100181.47;5014471;28;45546;-74
2023/09/22 15:48:18;;;;;;;;;0.00;0.00;;;;;32.73;24.35;100191.72;4997452;28;47310;-75
2023/09/22 15:50:44;;;;;;;;;0.50;0.00;;;;;32.83;23.85;100175.41;5016149;28;46613;-74
2023/09/22 15:53:09;;;;;;;;;0.00;0.00;;;;;32.60;24.06;100178.75;5015940;28;47391;-72
2023/09/22 15:55:34;;;;;;;;;2.50;0.75;;;;;32.24;24.62;100177.56;5016616;28;45417;-83
2023/09/22 15:58:00;;;;;;;;;9.00;8.75;;;;;32.66;24.32;100178.72;5017080;28;45586;-78
2023/09/22 16:00:25;;;;;;;;;2.50;1.00;;;;;32.55;24.11;100200.81;5016009;28;56615;-76
2023/09/22 16:02:51;;;;;;;;;35.25;31.00;;;;;32.70;24.67;100198.56;5015808;28;45408;-74
2023/09/22 16:05:17;;;;;;;;;0.75;0.75;;;;;32.82;24.37;100205.09;4996889;28;45403;-80
2023/09/22 16:07:43;;;;;;;;;1.00;0.00;;;;;32.05;25.43;100195.19;5014035;28;45566;-74
2023/09/22 16:10:09;;;;;;;;;4.50;4.50;;;;;32.02;25.18;100200.31;5015407;28;46145;-76
2023/09/22 16:12:34;;;;;;;;;0.00;0.00;;;;;31.66;26.05;100204.56;4980243;28;46586;-75
2023/09/22 16:14:59;;;;;;;;;0.00;0.00;;;;;30.90;26.43;100220.94;5015156;28;45292;-78
2023/09/22 16:17:27;;;;;;;;;0.00;0.00;;;;;30.69;26.77;100215.66;5015617;28;46272;-75
2023/09/22 16:19:53;;;;;;;;;0.00;0.00;;;;;30.30;27.09;100224.72;5014127;28;47712;-75
2023/09/22 16:22:18;;;;;;;;;0.50;0.50;;;;;30.62;26.98;100221.19;5015721;28;45577;-76
2023/09/22 16:24:44;;;;;;;;;0.50;0.50;;;;;30.23;27.53;100227.50;5014727;28;45252;-75
2023/09/22 16:27:09;;;;;;;;;1.00;0.00;;;;;29.48;28.61;100244.22;5016425;28;45233;-74
2023/09/22 16:29:35;;;;;;;;;0.75;0.75;;;;;29.16;29.12;100246.56;5016072;28;45459;-75
2023/09/22 16:32:00;;;;;;;;;0.00;0.00;;;;;29.02;29.31;100236.47;5016845;28;45181;-75
2023/09/22 16:34:26;;;;;;;;;2.00;2.00;;;;;28.95;29.71;100227.31;5016359;28;45365;-75
2023/09/22 16:36:51;;;;;;;;;0.00;0.00;;;;;29.13;29.98;100249.72;4998380;28;45229;-72
2023/09/22 16:39:16;;;;;;;;;2.50;0.00;;;;;29.09;29.40;100242.06;5016492;28;45184;-73
2023/09/22 16:41:45;;;;;;;;;0.00;0.00;;;;;29.15;29.85;100255.91;5016156;28;45423;-74
2023/09/22 16:44:11;;;;;;;;;2.00;1.00;;;;;29.07;29.64;100246.94;5016091;28;45923;-80
2023/09/22 16:46:36;;;;;;;;;0.00;0.00;;;;;29.04;29.77;100256.47;5016101;28;45314;-79
2023/09/22 16:49:02;;;;;;;;;2.00;0.00;;;;;29.20;30.07;100261.66;5015971;28;46606;-76
2023/09/22 16:51:28;;;;;;;;;1.00;1.00;;;;;29.36;29.95;100271.56;5016161;28;45429;-75
2023/09/22 16:53:53;;;;;;;;;1.00;1.00;;;;;29.59;30.09;100271.28;5016156;28;45355;-76
2023/09/22 16:56:20;;;;;;;;;0.00;0.00;;;;;29.20;31.12;100280.13;5015990;28;45339;-77
2023/09/22 16:58:45;;;;;;;;;1.00;1.00;;;;;29.27;30.55;100275.50;5015595;28;46142;-75
2023/09/22 17:01:11;;;;;;;;;1.00;1.00;;;;;29.07;31.16;100296.63;5015548;28;45773;-76
2023/09/22 17:03:36;;;;;;;;;0.00;0.00;;;;;28.67;31.62;100300.94;5015736;28;45891;-76
2023/09/22 17:06:02;;;;;;;;;1.00;1.00;;;;;28.67;31.45;100295.41;4998503;28;45478;-76
2023/09/22 17:08:28;;;;;;;;;1.00;1.00;;;;;28.00;31.51;100296.56;5015671;28;46094;-77
2023/09/22 17:10:53;;;;;;;;;1.00;0.75;;;;;27.97;31.80;100307.16;5015628;28;45512;-76
2023/09/22 17:13:19;;;;;;;;;0.00;0.00;;;;;28.17;31.90;100314.63;5015707;28;45554;-76
2023/09/22 17:15:44;;;;;;;;;0.50;0.50;;;;;28.26;32.02;100314.50;5015854;28;45487;-76
2023/09/22 17:18:15;;;;;;;;;0.50;0.50;;;;;28.43;31.01;100311.28;4997529;28;46031;-76
2023/09/22 17:20:41;;;;;;;;;1.00;1.00;;;;;28.17;31.39;100311.00;5014435;28;45431;-76
2023/09/22 17:23:08;;;;;;;;;2.00;1.00;;;;;27.84;31.08;100311.44;5015645;28;45548;-76
2023/09/22 17:25:34;;;;;;;;;1.00;1.00;;;;;28.00;31.48;100331.53;5015363;28;45454;-75
2023/09/22 17:27:59;;;;;;;;;0.25;0.25;;;;;28.06;31.44;100322.53;5015409;28;46131;-77
2023/09/22 17:30:25;;;;;;;;;0.50;0.50;;;;;27.73;31.18;100330.38;5015408;28;45390;-78
2023/09/22 17:32:51;;;;;;;;;0.00;0.00;;;;;27.58;31.93;100344.13;4995556;28;45743;-77
2023/09/22 17:35:17;;;;;;;;;2.00;1.00;;;;;27.35;32.12;100340.56;5015180;28;45374;-79
2023/09/22 17:37:43;;;;;;;;;0.75;0.75;;;;;27.25;32.22;100346.34;5015136;28;45545;-76
2023/09/22 17:40:11;;;;;;;;;3.00;3.00;;;;;27.15;32.31;100340.25;4997300;28;45721;-72
2023/09/22 17:42:37;;;;;;;;;5.00;1.75;;;;;27.06;32.62;100347.72;5015404;28;46721;-75
2023/09/22 17:45:04;;;;;;;;;2.50;2.00;;;;;27.04;33.02;100349.84;4994779;28;47223;-75
2023/09/22 17:47:30;;;;;;;;;2.75;2.75;;;;;27.01;32.88;100344.69;4994304;28;47433;-74
2023/09/22 17:49:55;;;;;;;;;1.25;1.25;;;;;26.96;33.32;100357.31;4996620;28;45533;-79
2023/09/22 17:52:20;;;;;;;;;2.00;2.00;;;;;26.85;33.36;100364.06;4997168;28;45414;-77
2023/09/22 17:54:46;;;;;;;;;4.00;4.00;;;;;26.83;34.12;100363.41;5014326;28;45324;-77
2023/09/22 17:57:11;;;;;;;;;6.00;6.00;;;;;26.75;34.43;100379.97;5014404;28;45424;-77
2023/09/22 17:59:38;;;;;;;;;3.00;3.00;;;;;26.59;35.03;100386.44;5014264;28;45524;-77
2023/09/22 18:02:03;;;;;;;;;2.75;2.75;;;;;26.34;35.06;100373.91;5014447;28;45253;-79
2023/09/22 18:04:30;;;;;;;;;6.25;6.25;;;;;26.34;35.87;100382.13;5013886;28;45512;-80
2023/09/22 18:06:56;;;;;;;;;4.25;3.00;;;;;26.34;35.59;100366.50;5015206;28;45967;-79
2023/09/22 18:09:21;;;;;;;;;9.00;9.00;;;;;26.57;35.26;100379.41;5014567;28;45783;-78
2023/09/22 18:11:48;;;;;;;;;6.00;4.50;;;;;26.62;35.79;100386.09;4998552;28;45264;-78
2023/09/22 18:14:14;;;;;;;;;5.00;3.75;;;;;26.48;36.13;100370.34;5015209;28;45443;-78
2023/09/22 18:16:43;;;;;;;;;4.00;4.00;;;;;26.66;35.93;100386.56;5025267;28;45505;-77
2023/09/22 18:19:10;;;;;;;;;5.25;5.00;;;;;26.77;35.41;100391.66;5025189;28;44838;-80